createdAt,value
2018-06-11T00:00:01.680Z,21.15
2018-06-11T00:01:01.673Z,21.11
2018-06-11T00:02:01.678Z,21.09
2018-06-11T00:03:01.658Z,21.06
2018-06-11T00:04:01.406Z,20.99
2018-06-11T00:05:01.421Z,20.97
2018-06-11T00:06:01.414Z,21.03
2018-06-11T00:07:01.416Z,20.97
2018-06-11T00:08:01.678Z,20.9
2018-06-11T00:09:01.429Z,20.88
2018-06-11T00:10:01.424Z,20.81
2018-06-11T00:11:01.680Z,20.87
2018-06-11T00:12:01.701Z,20.8
2018-06-11T00:13:02.284Z,20.77
2018-06-11T00:14:01.685Z,20.7
2018-06-11T00:15:01.702Z,20.63
2018-06-11T00:16:01.432Z,20.52
2018-06-11T00:17:01.690Z,20.59
2018-06-11T00:18:01.694Z,20.52
2018-06-11T00:19:01.444Z,20.52
2018-06-11T00:20:01.434Z,20.55
2018-06-11T00:21:01.440Z,20.5
2018-06-11T00:22:01.695Z,20.62
2018-06-11T00:23:01.795Z,20.65
2018-06-11T00:24:01.445Z,20.62
2018-06-11T00:25:01.194Z,20.6
2018-06-11T00:26:01.463Z,20.66
2018-06-11T00:27:01.716Z,20.7
2018-06-11T00:28:01.718Z,20.66
2018-06-11T00:29:01.719Z,20.66
2018-06-11T00:30:01.724Z,20.66
2018-06-11T00:31:01.718Z,20.62
2018-06-11T00:32:01.470Z,20.6
2018-06-11T00:33:01.720Z,20.52
2018-06-11T00:34:01.715Z,20.52
2018-06-11T00:35:01.483Z,20.55
2018-06-11T00:36:01.475Z,20.52
2018-06-11T00:37:01.722Z,20.56
2018-06-11T00:38:01.209Z,20.59
2018-06-11T00:39:01.770Z,20.55
2018-06-11T00:40:01.742Z,20.59
2018-06-11T00:41:01.481Z,20.58
2018-06-11T00:42:01.743Z,20.51
2018-06-11T00:43:01.753Z,20.58
2018-06-11T00:44:01.744Z,20.5
2018-06-11T00:45:01.488Z,20.41
2018-06-11T00:46:01.749Z,20.43
2018-06-11T00:47:01.748Z,20.47
2018-06-11T00:48:01.760Z,20.51
2018-06-11T00:49:01.755Z,20.41
2018-06-11T00:50:01.751Z,20.32
2018-06-11T00:51:01.760Z,20.43
2018-06-11T00:52:01.761Z,20.43
2018-06-11T00:53:01.501Z,20.43
2018-06-11T00:54:01.779Z,20.43
2018-06-11T00:55:01.766Z,20.51
2018-06-11T00:56:01.547Z,20.56
2018-06-11T00:57:01.530Z,20.59
2018-06-11T00:58:03.629Z,20.51
2018-06-11T00:59:01.255Z,20.52
2018-06-11T01:00:01.776Z,20.55
2018-06-11T01:01:01.776Z,20.6
2018-06-11T01:02:01.532Z,20.58
2018-06-11T01:03:01.789Z,20.51
2018-06-11T01:04:01.817Z,20.47
2018-06-11T01:05:01.525Z,20.48
2018-06-11T01:06:01.269Z,20.55
2018-06-11T01:07:01.526Z,20.58
2018-06-11T01:08:01.528Z,20.55
2018-06-11T01:09:01.815Z,20.56
2018-06-11T01:10:01.802Z,20.55
2018-06-11T01:11:01.797Z,20.55
2018-06-11T01:12:01.797Z,20.44
2018-06-11T01:13:01.802Z,20.44
2018-06-11T01:14:01.803Z,20.43
2018-06-11T01:15:01.806Z,20.41
2018-06-11T01:16:01.541Z,20.43
2018-06-11T01:17:01.816Z,20.37
2018-06-11T01:18:01.563Z,20.47
2018-06-11T01:19:01.803Z,20.43
2018-06-11T01:20:01.560Z,20.47
2018-06-11T01:21:01.574Z,20.52
2018-06-11T01:22:01.823Z,20.58
2018-06-11T01:23:01.558Z,20.52
2018-06-11T01:24:01.831Z,20.47
2018-06-11T01:25:01.590Z,20.44
2018-06-11T01:26:01.825Z,20.41
2018-06-11T01:27:01.824Z,20.56
2018-06-11T01:28:01.831Z,20.39
2018-06-11T01:29:01.829Z,20.5
2018-06-11T01:30:01.581Z,20.44
2018-06-11T01:31:01.574Z,20.47
2018-06-11T01:32:01.579Z,20.5
2018-06-11T01:33:01.574Z,20.47
2018-06-11T01:34:01.581Z,20.47
2018-06-11T01:35:01.846Z,20.43
2018-06-11T01:36:01.841Z,20.39
2018-06-11T01:37:01.603Z,20.36
2018-06-11T01:38:01.589Z,20.37
2018-06-11T01:39:01.860Z,20.39
2018-06-11T01:40:01.612Z,20.36
2018-06-11T01:41:01.338Z,20.36
2018-06-11T01:42:01.855Z,20.4
2018-06-11T01:43:01.861Z,20.37
2018-06-11T01:44:01.601Z,20.37
2018-06-11T01:45:01.862Z,20.4
2018-06-11T01:46:01.377Z,20.4
2018-06-11T01:47:01.757Z,20.37
2018-06-11T01:48:01.677Z,20.36
2018-06-11T01:49:01.605Z,20.39
2018-06-11T01:50:01.348Z,20.36
2018-06-11T01:51:01.862Z,20.5
2018-06-11T01:52:01.604Z,20.44
2018-06-11T01:53:01.365Z,20.44
2018-06-11T01:54:01.881Z,20.48
2018-06-11T01:55:01.616Z,20.4
2018-06-11T01:56:01.925Z,20.34
2018-06-11T01:57:01.617Z,20.4
2018-06-11T01:58:01.617Z,20.39
2018-06-11T01:59:04.830Z,20.37
2018-06-11T02:00:01.644Z,20.39
2018-06-11T02:01:01.641Z,20.39
2018-06-11T02:02:01.656Z,20.36
2018-06-11T02:03:01.373Z,20.36
2018-06-11T02:04:01.627Z,20.37
2018-06-11T02:05:01.653Z,20.43
2018-06-11T02:06:01.890Z,20.5
2018-06-11T02:07:01.641Z,20.44
2018-06-11T02:08:01.653Z,20.48
2018-06-11T02:09:01.376Z,20.56
2018-06-11T02:10:01.659Z,20.43
2018-06-11T02:11:01.654Z,20.41
2018-06-11T02:12:01.918Z,20.47
2018-06-11T02:13:01.912Z,20.47
2018-06-11T02:14:01.657Z,20.4
2018-06-11T02:15:01.410Z,20.41
2018-06-11T02:16:01.927Z,20.4
2018-06-11T02:17:01.656Z,20.31
2018-06-11T02:18:01.660Z,20.36
2018-06-11T02:19:01.401Z,20.26
2018-06-11T02:20:01.926Z,20.31
2018-06-11T02:21:01.415Z,20.39
2018-06-11T02:22:01.732Z,20.34
2018-06-11T02:23:01.672Z,20.29
2018-06-11T02:24:01.937Z,20.41
2018-06-11T02:25:01.685Z,20.41
2018-06-11T02:26:01.676Z,20.32
2018-06-11T02:27:01.413Z,20.24
2018-06-11T02:28:01.936Z,20.28
2018-06-11T02:29:01.989Z,20.31
2018-06-11T02:30:01.677Z,20.26
2018-06-11T02:31:01.696Z,20.25
2018-06-11T02:32:01.688Z,20.28
2018-06-11T02:33:01.690Z,20.16
2018-06-11T02:34:01.951Z,20.24
2018-06-11T02:35:01.964Z,20.29
2018-06-11T02:36:01.429Z,20.19
2018-06-11T02:37:01.693Z,20.26
2018-06-11T02:38:01.978Z,20.28
2018-06-11T02:39:01.953Z,20.26
2018-06-11T02:40:01.747Z,20.29
2018-06-11T02:41:01.952Z,20.29
2018-06-11T02:42:02.006Z,20.32
2018-06-11T02:43:01.971Z,20.26
2018-06-11T02:44:01.746Z,20.29
2018-06-11T02:45:01.706Z,20.31
2018-06-11T02:46:01.719Z,20.22
2018-06-11T02:47:01.741Z,20.22
2018-06-11T02:48:01.711Z,20.1
2018-06-11T02:49:02.012Z,20.11
2018-06-11T02:50:01.991Z,20.06
2018-06-11T02:51:01.974Z,20.04
2018-06-11T02:52:01.740Z,20.03
2018-06-11T02:53:02.013Z,19.94
2018-06-11T02:54:01.995Z,19.96
2018-06-11T02:55:01.731Z,19.96
2018-06-11T02:56:01.494Z,19.94
2018-06-11T02:57:02.015Z,20.02
2018-06-11T02:58:02.011Z,19.94
2018-06-11T02:59:02.019Z,20.02
2018-06-11T03:00:02.017Z,20.03
2018-06-11T03:01:01.733Z,20.07
2018-06-11T03:02:01.755Z,20.06
2018-06-11T03:03:01.753Z,20.13
2018-06-11T03:04:02.017Z,20.11
2018-06-11T03:05:02.021Z,20.21
2018-06-11T03:06:01.759Z,20.18
2018-06-11T03:07:02.012Z,20.16
2018-06-11T03:08:02.019Z,20.14
2018-06-11T03:09:01.792Z,20.22
2018-06-11T03:10:01.497Z,20.19
2018-06-11T03:11:01.500Z,20.22
2018-06-11T03:12:02.019Z,20.24
2018-06-11T03:13:01.760Z,20.19
2018-06-11T03:14:02.016Z,20.11
2018-06-11T03:15:01.764Z,20.11
2018-06-11T03:16:02.033Z,20.06
2018-06-11T03:17:01.767Z,20.16
2018-06-11T03:18:01.768Z,20.04
2018-06-11T03:19:02.048Z,20.03
2018-06-11T03:20:02.038Z,20
2018-06-11T03:21:02.039Z,20.04
2018-06-11T03:22:01.806Z,19.96
2018-06-11T03:23:02.023Z,20.03
2018-06-11T03:24:02.042Z,20.03
2018-06-11T03:25:01.791Z,20.07
2018-06-11T03:26:02.048Z,20.06
2018-06-11T03:27:01.796Z,19.96
2018-06-11T03:28:01.789Z,20
2018-06-11T03:29:01.791Z,19.92
2018-06-11T03:30:01.785Z,19.94
2018-06-11T03:31:02.055Z,20.02
2018-06-11T03:32:01.542Z,19.95
2018-06-11T03:33:02.052Z,20.02
2018-06-11T03:34:01.794Z,19.94
2018-06-11T03:35:01.805Z,19.84
2018-06-11T03:36:01.542Z,19.84
2018-06-11T03:37:02.051Z,19.88
2018-06-11T03:38:02.066Z,19.92
2018-06-11T03:39:01.542Z,19.95
2018-06-11T03:40:01.829Z,19.94
2018-06-11T03:41:01.816Z,19.89
2018-06-11T03:42:01.807Z,19.81
2018-06-11T03:43:01.823Z,19.85
2018-06-11T03:44:02.071Z,19.85
2018-06-11T03:45:01.547Z,19.81
2018-06-11T03:46:01.835Z,19.82
2018-06-11T03:47:01.819Z,19.96
2018-06-11T03:48:01.821Z,19.95
2018-06-11T03:49:01.828Z,20.06
2018-06-11T03:50:02.077Z,20.13
2018-06-11T03:51:02.086Z,20.11
2018-06-11T03:52:01.836Z,20.19
2018-06-11T03:53:01.823Z,20.18
2018-06-11T03:54:01.863Z,20.31
2018-06-11T03:55:02.096Z,20.24
2018-06-11T03:56:01.576Z,20.32
2018-06-11T03:57:02.096Z,20.4
2018-06-11T03:58:01.591Z,20.48
2018-06-11T03:59:01.839Z,20.59
2018-06-11T04:00:02.092Z,20.62
2018-06-11T04:01:02.115Z,20.67
2018-06-11T04:02:01.591Z,20.84
2018-06-11T04:03:02.137Z,21.03
2018-06-11T04:04:01.854Z,21.09
2018-06-11T04:05:02.103Z,21.22
2018-06-11T04:06:01.863Z,21.35
2018-06-11T04:07:02.119Z,21.43
2018-06-11T04:08:02.124Z,21.4
2018-06-11T04:09:01.869Z,21.48
2018-06-11T04:10:01.858Z,21.51
2018-06-11T04:11:02.374Z,21.51
2018-06-11T04:12:02.126Z,21.57
2018-06-11T04:13:02.128Z,21.55
2018-06-11T04:14:01.655Z,21.64
2018-06-11T04:15:01.938Z,21.64
2018-06-11T04:16:01.875Z,21.72
2018-06-11T04:17:02.141Z,21.8
2018-06-11T04:18:01.873Z,21.88
2018-06-11T04:19:02.147Z,21.88
2018-06-11T04:20:02.151Z,21.98
2018-06-11T04:21:01.910Z,22.13
2018-06-11T04:22:02.148Z,22.25
2018-06-11T04:23:02.178Z,22.38
2018-06-11T04:24:02.156Z,22.38
2018-06-11T04:25:01.906Z,22.48
2018-06-11T04:26:02.170Z,22.57
2018-06-11T04:27:01.914Z,22.63
2018-06-11T04:28:01.911Z,22.7
2018-06-11T04:29:02.187Z,22.69
2018-06-11T04:30:02.193Z,22.68
2018-06-11T04:31:01.672Z,22.63
2018-06-11T04:32:01.669Z,22.63
2018-06-11T04:33:02.188Z,22.72
2018-06-11T04:34:01.676Z,22.8
2018-06-11T04:35:01.945Z,22.84
2018-06-11T04:36:02.226Z,22.81
2018-06-11T04:37:02.204Z,22.9
2018-06-11T04:38:01.962Z,22.98
2018-06-11T04:39:02.214Z,23.06
2018-06-11T04:40:02.062Z,23.12
2018-06-11T04:41:02.292Z,23.12
2018-06-11T04:42:01.969Z,23.13
2018-06-11T04:43:02.242Z,23.15
2018-06-11T04:44:01.985Z,23.31
2018-06-11T04:45:01.978Z,23.55
2018-06-11T04:46:01.988Z,23.58
2018-06-11T04:47:02.007Z,23.55
2018-06-11T04:48:01.758Z,23.65
2018-06-11T04:49:01.734Z,23.69
2018-06-11T04:50:02.005Z,23.66
2018-06-11T04:51:02.007Z,23.77
2018-06-11T04:52:01.757Z,24.02
2018-06-11T04:53:02.333Z,24.08
2018-06-11T04:54:02.292Z,24.33
2018-06-11T04:55:02.305Z,24.33
2018-06-11T04:56:02.032Z,24.38
2018-06-11T04:57:02.301Z,24.57
2018-06-11T04:58:02.045Z,24.61
2018-06-11T04:59:02.050Z,24.69
2018-06-11T05:00:02.125Z,24.84
2018-06-11T05:01:02.335Z,24.84
2018-06-11T05:02:02.323Z,24.89
2018-06-11T05:03:02.080Z,24.88
2018-06-11T05:04:02.332Z,24.86
2018-06-11T05:05:01.821Z,24.88
2018-06-11T05:06:02.363Z,24.88
2018-06-11T05:07:02.348Z,24.99
2018-06-11T05:08:02.383Z,25.03
2018-06-11T05:09:02.364Z,25.03
2018-06-11T05:10:01.890Z,25.1
2018-06-11T05:11:02.371Z,25.13
2018-06-11T05:12:02.398Z,25.13
2018-06-11T05:13:01.869Z,25.46
2018-06-11T05:14:02.132Z,25.65
2018-06-11T05:15:02.460Z,25.77
2018-06-11T05:16:02.141Z,25.84
2018-06-11T05:17:02.420Z,25.8
2018-06-11T05:18:02.155Z,25.72
2018-06-11T05:19:02.158Z,25.93
2018-06-11T05:20:02.164Z,25.9
2018-06-11T05:21:02.446Z,25.98
2018-06-11T05:22:02.438Z,26.06
2018-06-11T05:23:02.186Z,26.13
2018-06-11T05:24:02.475Z,26.29
2018-06-11T05:25:02.207Z,26.31
2018-06-11T05:26:02.482Z,26.47
2018-06-11T05:27:02.206Z,26.44
2018-06-11T05:28:02.473Z,26.58
2018-06-11T05:29:02.476Z,26.55
2018-06-11T05:30:02.527Z,26.53
2018-06-11T05:31:02.523Z,26.45
2018-06-11T05:32:02.233Z,26.59
2018-06-11T05:33:02.525Z,26.71
2018-06-11T05:34:02.526Z,26.63
2018-06-11T05:35:02.273Z,26.48
2018-06-11T05:36:02.539Z,26.23
2018-06-11T05:37:02.522Z,25.93
2018-06-11T05:38:02.618Z,25.75
2018-06-11T05:39:02.541Z,25.54
2018-06-11T05:40:02.566Z,25.35
2018-06-11T05:41:02.061Z,25.17
2018-06-11T05:42:02.297Z,25.13
2018-06-11T05:43:02.314Z,25.04
2018-06-11T05:44:02.061Z,25.06
2018-06-11T05:45:02.315Z,24.98
2018-06-11T05:46:02.580Z,24.95
2018-06-11T05:47:02.330Z,25.23
2018-06-11T05:48:02.760Z,25.38
2018-06-11T05:49:02.337Z,25.68
2018-06-11T05:50:02.601Z,25.75
2018-06-11T05:51:02.087Z,25.73
2018-06-11T05:52:02.400Z,25.66
2018-06-11T05:53:02.351Z,25.69
2018-06-11T05:54:02.375Z,25.73
2018-06-11T05:55:02.367Z,25.91
2018-06-11T05:56:02.131Z,25.91
2018-06-11T05:57:02.128Z,25.9
2018-06-11T05:58:02.441Z,26.16
2018-06-11T05:59:02.403Z,26.29
2018-06-11T06:00:02.662Z,26.45
2018-06-11T06:01:02.408Z,26.36
2018-06-11T06:02:02.423Z,26.25
2018-06-11T06:03:02.672Z,26.41
2018-06-11T06:04:02.692Z,26.56
2018-06-11T06:05:02.685Z,26.77
2018-06-11T06:06:02.437Z,27
2018-06-11T06:07:02.708Z,27.14
2018-06-11T06:08:02.445Z,27.3
2018-06-11T06:09:02.449Z,27.44
2018-06-11T06:10:02.739Z,27.47
2018-06-11T06:11:02.755Z,27.39
2018-06-11T06:12:02.465Z,27.52
2018-06-11T06:13:02.477Z,27.77
2018-06-11T06:14:02.758Z,27.85
2018-06-11T06:15:02.540Z,27.86
2018-06-11T06:16:02.498Z,28.12
2018-06-11T06:17:02.769Z,28.33
2018-06-11T06:18:02.504Z,28.63
2018-06-11T06:19:02.511Z,28.88
2018-06-11T06:20:02.795Z,29.07
2018-06-11T06:21:02.545Z,29.13
2018-06-11T06:22:02.290Z,29.31
2018-06-11T06:23:02.559Z,29.29
2018-06-11T06:24:02.557Z,29.05
2018-06-11T06:25:02.582Z,28.88
2018-06-11T06:26:02.827Z,28.7
2018-06-11T06:27:02.344Z,28.82
2018-06-11T06:28:02.852Z,28.94
2018-06-11T06:29:02.841Z,29.2
2018-06-11T06:30:02.849Z,29.31
2018-06-11T06:31:02.595Z,29.24
2018-06-11T06:32:02.603Z,29.02
2018-06-11T06:33:02.619Z,28.91
2018-06-11T06:34:02.648Z,28.54
2018-06-11T06:35:02.631Z,28.08
2018-06-11T06:36:02.627Z,27.74
2018-06-11T06:37:02.925Z,27.12
2018-06-11T06:38:02.387Z,26.68
2018-06-11T06:39:02.914Z,26.13
2018-06-11T06:40:02.672Z,25.9
2018-06-11T06:41:02.670Z,25.68
2018-06-11T06:42:02.678Z,25.65
2018-06-11T06:43:02.954Z,25.48
2018-06-11T06:44:02.732Z,25.41
2018-06-11T06:45:02.688Z,25.41
2018-06-11T06:46:02.965Z,25.41
2018-06-11T06:47:02.956Z,25.51
2018-06-11T06:48:02.711Z,25.53
2018-06-11T06:49:02.713Z,25.62
2018-06-11T06:50:02.981Z,25.72
2018-06-11T06:51:02.730Z,25.9
2018-06-11T06:52:02.994Z,25.98
2018-06-11T06:53:03.033Z,26.05
2018-06-11T06:54:03.015Z,26.05
2018-06-11T06:55:03.010Z,26.18
2018-06-11T06:56:02.494Z,26.29
2018-06-11T06:57:03.016Z,26.51
2018-06-11T06:58:03.014Z,26.81
2018-06-11T06:59:03.028Z,26.99
2018-06-11T07:00:02.837Z,27.11
2018-06-11T07:01:03.036Z,27.33
2018-06-11T07:02:03.036Z,27.44
2018-06-11T07:03:02.522Z,27.87
2018-06-11T07:04:02.552Z,28.1
2018-06-11T07:05:03.051Z,28.33
2018-06-11T07:06:02.811Z,28.44
2018-06-11T07:07:02.816Z,28.52
2018-06-11T07:08:03.129Z,28.37
2018-06-11T07:09:02.824Z,28.22
2018-06-11T07:10:02.821Z,28.14
2018-06-11T07:11:03.094Z,28.08
2018-06-11T07:12:02.581Z,28.04
2018-06-11T07:13:02.848Z,28.08
2018-06-11T07:14:02.860Z,27.89
2018-06-11T07:15:02.855Z,27.82
2018-06-11T07:16:03.132Z,27.63
2018-06-11T07:17:03.130Z,27.49
2018-06-11T07:18:03.133Z,27.32
2018-06-11T07:19:03.164Z,27.22
2018-06-11T07:20:02.645Z,27.08
2018-06-11T07:21:02.888Z,27.02
2018-06-11T07:22:02.896Z,26.93
2018-06-11T07:23:03.167Z,26.95
2018-06-11T07:24:02.912Z,26.74
2018-06-11T07:25:03.174Z,26.73
2018-06-11T07:26:02.921Z,26.71
2018-06-11T07:27:03.235Z,26.56
2018-06-11T07:28:03.201Z,26.53
2018-06-11T07:29:03.194Z,26.45
2018-06-11T07:30:03.195Z,26.53
2018-06-11T07:31:03.214Z,26.45
2018-06-11T07:32:03.206Z,26.43
2018-06-11T07:33:03.211Z,26.51
2018-06-11T07:34:03.234Z,26.48
2018-06-11T07:35:03.394Z,26.48
2018-06-11T07:36:03.243Z,26.21
2018-06-11T07:37:03.244Z,26.23
2018-06-11T07:38:02.736Z,26.02
2018-06-11T07:39:02.998Z,25.96
2018-06-11T07:40:03.000Z,25.69
2018-06-11T07:41:03.374Z,25.68
2018-06-11T07:42:03.287Z,25.68
2018-06-11T07:43:03.284Z,25.65
2018-06-11T07:44:03.298Z,25.63
2018-06-11T07:45:03.016Z,25.68
2018-06-11T07:46:03.296Z,25.63
2018-06-11T07:47:03.030Z,25.68
2018-06-11T07:48:03.116Z,25.65
2018-06-11T07:49:03.040Z,25.75
2018-06-11T07:50:03.320Z,25.87
2018-06-11T07:51:03.058Z,25.9
2018-06-11T07:52:03.327Z,25.93
2018-06-11T07:53:03.068Z,25.93
2018-06-11T07:54:03.067Z,26.07
2018-06-11T07:55:03.071Z,26.05
2018-06-11T07:56:03.075Z,26.18
2018-06-11T07:57:03.092Z,26.13
2018-06-11T07:58:03.094Z,26.07
2018-06-11T07:59:03.345Z,26.02
2018-06-11T08:00:03.243Z,26.05
2018-06-11T08:01:03.360Z,26.15
2018-06-11T08:02:03.128Z,26.19
2018-06-11T08:03:03.108Z,26.34
2018-06-11T08:04:03.374Z,26.28
2018-06-11T08:05:03.129Z,26.38
2018-06-11T08:06:03.133Z,26.4
2018-06-11T08:07:03.396Z,26.51
2018-06-11T08:08:03.142Z,26.58
2018-06-11T08:09:03.151Z,26.55
2018-06-11T08:10:03.454Z,26.6
2018-06-11T08:11:03.414Z,26.65
2018-06-11T08:12:03.165Z,26.75
2018-06-11T08:13:03.438Z,26.66
2018-06-11T08:14:03.435Z,26.71
2018-06-11T08:15:03.485Z,26.84
2018-06-11T08:16:03.198Z,26.96
2018-06-11T08:17:03.195Z,26.97
2018-06-11T08:18:03.472Z,26.93
2018-06-11T08:19:03.458Z,26.92
2018-06-11T08:20:03.202Z,26.92
2018-06-11T08:21:03.464Z,26.97
2018-06-11T08:22:03.481Z,27.02
2018-06-11T08:23:03.218Z,27.08
2018-06-11T08:24:03.483Z,27.03
2018-06-11T08:25:03.236Z,27.05
2018-06-11T08:26:03.494Z,27.08
2018-06-11T08:27:03.505Z,27.11
2018-06-11T08:28:03.501Z,27.1
2018-06-11T08:29:03.507Z,27.11
2018-06-11T08:30:02.998Z,27.14
2018-06-11T08:31:03.255Z,27.21
2018-06-11T08:32:03.266Z,27.37
2018-06-11T08:33:03.270Z,27.51
2018-06-11T08:34:03.293Z,27.55
2018-06-11T08:35:03.266Z,27.7
2018-06-11T08:36:03.008Z,28.04
2018-06-11T08:37:03.042Z,28.22
2018-06-11T08:38:03.320Z,28.51
2018-06-11T08:39:03.318Z,28.93
2018-06-11T08:40:03.570Z,29.24
2018-06-11T08:41:03.315Z,29.41
2018-06-11T08:42:03.578Z,29.49
2018-06-11T08:43:03.585Z,29.49
2018-06-11T08:44:03.612Z,29.27
2018-06-11T08:45:04.181Z,29.04
2018-06-11T08:46:03.361Z,28.82
2018-06-11T08:47:03.111Z,28.64
2018-06-11T08:48:03.388Z,28.54
2018-06-11T08:49:03.369Z,28.54
2018-06-11T08:50:03.674Z,28.57
2018-06-11T08:51:03.646Z,28.52
2018-06-11T08:52:03.387Z,28.44
2018-06-11T08:53:03.390Z,28.26
2018-06-11T08:54:03.401Z,28.27
2018-06-11T08:55:03.685Z,28.19
2018-06-11T08:56:03.452Z,28.17
2018-06-11T08:57:03.158Z,28.2
2018-06-11T08:58:03.419Z,28.19
2018-06-11T08:59:03.435Z,28.04
2018-06-11T09:00:03.883Z,28.11
2018-06-11T09:01:03.452Z,28.22
2018-06-11T09:02:03.196Z,28.37
2018-06-11T09:03:03.456Z,28.45
2018-06-11T09:04:03.749Z,28.25
2018-06-11T09:05:03.497Z,28.19
2018-06-11T09:06:03.488Z,28.17
2018-06-11T09:07:03.288Z,28.17
2018-06-11T09:08:03.492Z,28.23
2018-06-11T09:09:03.237Z,28.51
2018-06-11T09:10:03.248Z,28.78
2018-06-11T09:11:03.766Z,29.01
2018-06-11T09:12:03.517Z,28.94
2018-06-11T09:13:03.795Z,28.91
2018-06-11T09:14:03.799Z,28.86
2018-06-11T09:15:03.809Z,28.76
2018-06-11T09:16:03.547Z,28.89
2018-06-11T09:17:03.552Z,28.97
2018-06-11T09:18:03.737Z,29.07
2018-06-11T09:19:03.831Z,29.12
2018-06-11T09:20:03.576Z,28.98
2018-06-11T09:21:03.576Z,29.12
2018-06-11T09:22:03.845Z,29.16
2018-06-11T09:23:03.870Z,29.32
2018-06-11T09:24:03.606Z,29.27
2018-06-11T09:25:03.663Z,29.31
2018-06-11T09:26:03.883Z,29.24
2018-06-11T09:27:03.608Z,29.1
2018-06-11T09:28:03.885Z,28.96
2018-06-11T09:29:03.377Z,28.75
2018-06-11T09:30:05.237Z,28.74
2018-06-11T09:31:03.432Z,28.49
2018-06-11T09:32:03.662Z,28.52
2018-06-11T09:33:03.658Z,28.48
2018-06-11T09:34:03.929Z,28.42
2018-06-11T09:35:03.703Z,28.48
2018-06-11T09:36:03.940Z,28.38
2018-06-11T09:37:03.681Z,28.26
2018-06-11T09:38:03.440Z,28.2
2018-06-11T09:39:03.944Z,27.98
2018-06-11T09:40:03.702Z,27.86
2018-06-11T09:41:03.705Z,27.83
2018-06-11T09:42:03.447Z,27.77
2018-06-11T09:43:03.709Z,27.64
2018-06-11T09:44:04.306Z,27.63
2018-06-11T09:45:03.996Z,27.52
2018-06-11T09:46:03.748Z,27.42
2018-06-11T09:47:03.735Z,27.37
2018-06-11T09:48:03.754Z,27.44
2018-06-11T09:49:03.486Z,27.47
2018-06-11T09:50:03.772Z,27.58
2018-06-11T09:51:04.009Z,27.67
2018-06-11T09:52:03.513Z,27.87
2018-06-11T09:53:04.030Z,27.9
2018-06-11T09:54:03.783Z,28.08
2018-06-11T09:55:03.793Z,28.07
2018-06-11T09:56:03.530Z,28.07
2018-06-11T09:57:03.558Z,28.05
2018-06-11T09:58:03.798Z,28.08
2018-06-11T09:59:03.577Z,28.22
2018-06-11T10:00:04.886Z,28.15
2018-06-11T10:01:04.105Z,28.15
2018-06-11T10:02:03.848Z,28.05
2018-06-11T10:03:04.110Z,27.9
2018-06-11T10:04:03.842Z,27.82
2018-06-11T10:05:03.843Z,27.9
2018-06-11T10:06:04.112Z,28.07
2018-06-11T10:07:04.149Z,28.22
2018-06-11T10:08:03.977Z,28.32
2018-06-11T10:09:04.286Z,28.35
2018-06-11T10:10:04.148Z,28.51
2018-06-11T10:11:03.891Z,28.59
2018-06-11T10:12:03.896Z,28.69
2018-06-11T10:13:03.904Z,28.75
2018-06-11T10:14:03.903Z,28.89
2018-06-11T10:15:04.171Z,29.01
2018-06-11T10:16:03.919Z,29.17
2018-06-11T10:17:04.183Z,29.32
2018-06-11T10:18:03.922Z,29.5
2018-06-11T10:19:04.213Z,29.56
2018-06-11T10:20:04.210Z,29.65
2018-06-11T10:21:03.935Z,29.68
2018-06-11T10:22:04.225Z,29.97
2018-06-11T10:53:28.976Z,29.38
2018-06-11T10:54:28.729Z,29.24
2018-06-11T10:55:28.981Z,29.26
2018-06-11T10:56:29.045Z,29.13
2018-06-11T10:57:28.733Z,29.07
2018-06-11T10:58:28.992Z,29.2
2018-06-11T10:59:28.754Z,29.32
2018-06-11T11:00:29.001Z,29.44
2018-06-11T11:01:28.805Z,29.6
2018-06-11T11:02:29.011Z,29.76
2018-06-11T11:03:29.013Z,29.75
2018-06-11T11:04:28.777Z,29.84
2018-06-11T11:05:28.766Z,30
2018-06-11T11:06:29.111Z,29.98
2018-06-11T11:07:29.057Z,30.08
2018-06-11T11:08:29.052Z,30.19
2018-06-11T11:09:28.540Z,30.37
2018-06-11T11:10:29.072Z,30.55
2018-06-11T11:11:29.105Z,30.72
2018-06-11T11:12:29.090Z,30.8
2018-06-11T11:13:29.085Z,30.75
2018-06-11T11:14:28.929Z,30.73
2018-06-11T11:15:29.087Z,30.63
2018-06-11T11:16:29.168Z,30.4
2018-06-11T11:17:28.849Z,30.44
2018-06-11T11:18:29.119Z,30.39
2018-06-11T11:19:28.595Z,30.39
2018-06-11T11:20:28.875Z,30.44
2018-06-11T11:21:29.139Z,30.5
2018-06-11T11:22:29.147Z,30.53
2018-06-11T11:23:28.901Z,30.55
2018-06-11T11:24:29.151Z,30.47
2018-06-11T11:25:28.891Z,30.25
2018-06-11T11:26:29.260Z,30.15
2018-06-11T11:27:29.190Z,29.84
2018-06-11T11:28:29.739Z,29.76
2018-06-11T11:29:28.927Z,29.76
2018-06-11T11:30:28.933Z,29.86
2018-06-11T11:31:29.004Z,29.84
2018-06-11T11:32:28.950Z,29.91
2018-06-11T11:33:29.209Z,29.86
2018-06-11T11:34:28.951Z,29.72
2018-06-11T11:35:29.226Z,29.6
2018-06-11T11:36:29.281Z,29.69
2018-06-11T11:37:29.248Z,29.86
2018-06-11T11:38:28.986Z,30.15
2018-06-11T11:39:28.999Z,30.15
2018-06-11T11:40:29.261Z,30.34
2018-06-11T11:41:29.025Z,30.43
2018-06-11T11:42:29.004Z,30.46
2018-06-11T11:43:29.026Z,30.54
2018-06-11T11:44:29.286Z,30.68
2018-06-11T11:45:29.025Z,30.7
2018-06-11T11:46:29.038Z,30.88
2018-06-11T11:47:29.302Z,30.87
2018-06-11T11:48:28.785Z,30.83
2018-06-11T11:49:29.080Z,30.9
2018-06-11T11:50:29.077Z,31.05
2018-06-11T11:51:29.165Z,31.1
2018-06-11T11:52:29.077Z,30.99
2018-06-11T11:53:28.877Z,30.87
2018-06-11T11:54:29.348Z,30.77
2018-06-11T11:55:29.347Z,30.62
2018-06-11T11:56:29.109Z,30.65
2018-06-11T11:57:29.260Z,30.78
2018-06-11T11:58:29.385Z,30.84
2018-06-11T11:59:29.128Z,31
2018-06-11T12:00:29.397Z,30.97
2018-06-11T12:01:28.878Z,30.92
2018-06-11T12:02:29.406Z,30.88
2018-06-11T12:03:29.443Z,30.92
2018-06-11T12:04:29.165Z,31.05
2018-06-11T12:05:29.430Z,31.07
2018-06-11T12:06:29.452Z,31.1
2018-06-11T12:07:29.465Z,31.17
2018-06-11T12:08:29.477Z,31.14
2018-06-11T12:09:28.953Z,31.21
2018-06-11T12:10:29.459Z,31.15
2018-06-11T12:11:29.531Z,31.28
2018-06-11T12:12:29.212Z,31.44
2018-06-11T12:13:30.302Z,31.33
2018-06-11T12:14:29.489Z,31.44
2018-06-11T12:15:29.493Z,31.62
2018-06-11T12:16:29.561Z,31.69
2018-06-11T12:17:29.505Z,31.87
2018-06-11T12:18:29.284Z,31.87
2018-06-11T12:19:29.013Z,31.89
2018-06-11T12:20:29.530Z,31.84
2018-06-11T12:21:29.582Z,31.87
2018-06-11T12:22:29.285Z,31.84
2018-06-11T12:23:29.583Z,31.73
2018-06-11T12:24:29.039Z,31.64
2018-06-11T12:25:29.303Z,31.59
2018-06-11T12:26:29.665Z,31.7
2018-06-11T12:27:29.332Z,31.76
2018-06-11T12:28:29.343Z,31.77
2018-06-11T12:29:29.610Z,31.84
2018-06-11T12:30:29.352Z,31.69
2018-06-11T12:31:29.186Z,31.44
2018-06-11T12:32:29.617Z,31.28
2018-06-11T12:33:29.366Z,31.1
2018-06-11T12:34:29.121Z,30.9
2018-06-11T12:35:29.636Z,30.73
2018-06-11T12:36:29.675Z,30.62
2018-06-11T12:37:29.659Z,30.61
2018-06-11T12:38:29.458Z,30.62
2018-06-11T12:39:29.411Z,30.63
2018-06-11T12:40:29.409Z,30.65
2018-06-11T12:41:29.413Z,30.54
2018-06-11T12:42:29.421Z,30.43
2018-06-11T12:43:29.440Z,30.28
2018-06-11T12:44:29.696Z,30.27
2018-06-11T12:45:29.474Z,30.16
2018-06-11T12:46:29.518Z,30.19
2018-06-11T12:47:29.255Z,30.15
2018-06-11T12:48:29.487Z,30.03
2018-06-11T12:49:29.756Z,30.1
2018-06-11T12:50:29.223Z,30.12
2018-06-11T12:51:29.780Z,29.95
2018-06-11T12:52:29.490Z,29.86
2018-06-11T12:53:29.508Z,29.79
2018-06-11T12:54:29.504Z,29.82
2018-06-11T12:55:29.770Z,29.87
2018-06-11T12:56:29.888Z,29.98
2018-06-11T12:57:29.531Z,30.02
2018-06-11T12:58:29.556Z,30.16
2018-06-11T12:59:29.574Z,30.23
2018-06-11T13:00:29.819Z,30.19
2018-06-11T13:01:30.048Z,30.23
2018-06-11T13:02:29.825Z,30.24
2018-06-11T13:03:29.585Z,30.24
2018-06-11T13:04:29.575Z,30.13
2018-06-11T13:05:29.586Z,30.02
2018-06-11T13:06:29.588Z,30.05
2018-06-11T13:07:29.850Z,30.12
2018-06-11T13:08:29.352Z,30.05
2018-06-11T13:09:29.863Z,30.13
2018-06-11T13:10:29.887Z,30.1
2018-06-11T13:11:29.710Z,30.25
2018-06-11T13:12:29.618Z,30.23
2018-06-11T13:13:29.668Z,30.27
2018-06-11T13:14:29.904Z,30.09
2018-06-11T13:15:29.915Z,30.02
2018-06-11T13:16:29.980Z,30.02
2018-06-11T13:17:29.648Z,30.15
2018-06-11T13:18:29.672Z,30.27
2018-06-11T13:19:29.934Z,30.43
2018-06-11T13:20:29.672Z,30.37
2018-06-11T13:21:29.465Z,30.16
2018-06-11T13:22:29.423Z,30.12
2018-06-11T13:23:29.971Z,30.06
2018-06-11T13:24:29.729Z,29.81
2018-06-11T13:25:29.707Z,29.72